Terminal Aerodrome Forecast
Issued by NWS

Home | Current Version | Previous Version | Text Only | Print | Product List | Glossary On
Versions: 1 2 3 4 5 6 7 8 9 10 11 12 13 14 15 16 17 18 19 20 21
000
FTUS41 KPBZ 102300
TAFMGW
TAF
KMGW 102320Z 1100/1124 VRB03KT P6SM FEW050
     FM110500 00000KT 4SM BR SCT250
     FM110800 00000KT 1 1/2SM BR SCT250
     FM111100 00000KT 1/2SM FG VV002
     FM111400 06005KT P6SM SCT050=

USA.gov is the U.S. government's official web portal to all federal, state and local government web resources and services.